Time;durP1;ratioP1;P1;durP2;ratioP2;P2;SDS_P1;SDS_P2;PMS_P1;PMS_P2;Temp;Humidity;BMP_temperature;BMP_pressure;BME280_temperature;BME280_humidity;BME280_pressure;Samples;Min_cycle;Max_cycle;Signal;HPM_P1;HPM_P2
2023/04/13 00:02:18;;;;;;;6.40;1.77;;;6.90;99.90;;;;;;4772859;30;20065;-87
2023/04/13 00:04:44;;;;;;;4.93;1.80;;;7.00;99.90;;;;;;4757926;30;20056;-85
2023/04/13 00:07:13;;;;;;;8.00;2.70;;;7.00;99.90;;;;;;4772395;30;20099;-85
2023/04/13 00:09:40;;;;;;;3.97;1.85;;;7.10;99.90;;;;;;4788576;30;20142;-85
2023/04/13 00:12:09;;;;;;;5.25;1.73;;;7.10;99.90;;;;;;4772678;30;20062;-85
2023/04/13 00:14:35;;;;;;;4.38;1.67;;;7.20;99.90;;;;;;4758486;30;20103;-85
2023/04/13 00:17:04;;;;;;;3.37;1.70;;;7.20;99.90;;;;;;4772686;30;20055;-85
2023/04/13 00:19:30;;;;;;;5.68;1.77;;;7.20;99.90;;;;;;4772499;30;20066;-86
2023/04/13 00:21:56;;;;;;;5.88;1.80;;;7.20;99.90;;;;;;4757868;30;20062;-87
2023/04/13 00:24:22;;;;;;;6.33;2.10;;;7.20;99.90;;;;;;4772622;30;20055;-87
2023/04/13 00:26:47;;;;;;;4.90;2.10;;;7.20;99.90;;;;;;4772353;30;20485;-83
2023/04/13 00:29:13;;;;;;;4.40;1.73;;;7.20;99.90;;;;;;4772228;30;20412;-83
2023/04/13 00:31:39;;;;;;;8.97;2.30;;;7.10;99.90;;;;;;4789317;29;20051;-83
2023/04/13 00:34:05;;;;;;;3.60;1.60;;;7.10;99.90;;;;;;4794251;29;20062;-83
2023/04/13 00:36:31;;;;;;;4.38;1.83;;;7.00;99.90;;;;;;4794473;30;20062;-83
2023/04/13 00:38:57;;;;;;;3.58;1.60;;;7.00;99.90;;;;;;4794205;29;20051;-82
2023/04/13 00:41:24;;;;;;;5.43;1.50;;;6.90;99.90;;;;;;4794164;29;20055;-83
2023/04/13 00:43:51;;;;;;;5.97;1.50;;;6.90;99.90;;;;;;4794158;30;20130;-82
2023/04/13 00:46:18;;;;;;;4.43;1.50;;;6.90;99.90;;;;;;4793963;30;20591;-81
2023/04/13 00:48:46;;;;;;;4.28;1.67;;;6.80;99.90;;;;;;4794139;29;20401;-81
2023/04/13 00:51:14;;;;;;;3.38;1.20;;;6.80;99.90;;;;;;4794833;29;20055;-81
2023/04/13 00:53:42;;;;;;;3.17;1.08;;;6.70;99.90;;;;;;4778664;30;20413;-82
2023/04/13 00:56:08;;;;;;;3.58;1.10;;;6.70;99.90;;;;;;4778192;30;20073;-82
2023/04/13 00:58:34;;;;;;;3.15;1.35;;;6.70;99.90;;;;;;4794061;29;20051;-83
2023/04/13 01:01:01;;;;;;;5.07;1.25;;;6.70;99.90;;;;;;4794605;30;20055;-82
2023/04/13 01:03:27;;;;;;;2.83;1.02;;;6.60;99.90;;;;;;4778048;30;20158;-83
2023/04/13 01:06:12;;;;;;;4.10;1.07;;;6.60;99.90;;;;;;4793485;29;20074;-83
2023/04/13 01:08:49;;;;;;;5.90;1.40;;;6.60;99.90;;;;;;4778897;30;20074;-82
2023/04/13 01:11:24;;;;;;;3.22;1.38;;;6.50;99.90;;;;;;4793974;30;20089;-83
2023/04/13 01:14:04;;;;;;;3.65;1.10;;;6.50;99.90;;;;;;4794398;30;20055;-83
2023/04/13 01:16:37;;;;;;;3.05;1.10;;;6.50;99.90;;;;;;4794348;30;20096;-83
2023/04/13 01:19:05;;;;;;;4.97;1.42;;;6.50;99.90;;;;;;4794182;30;20123;-83
2023/04/13 01:21:33;;;;;;;3.40;1.30;;;6.50;99.90;;;;;;4793862;30;20055;-84
2023/04/13 01:24:29;;;;;;;3.53;1.50;;;6.50;99.90;;;;;;4778163;30;20051;-84
2023/04/13 01:27:06;;;;;;;3.08;1.17;;;6.50;99.90;;;;;;4794353;30;20051;-84
2023/04/13 01:29:33;;;;;;;3.95;1.20;;;6.50;99.90;;;;;;4777984;30;20059;-85
2023/04/13 01:32:00;;;;;;;4.13;1.20;;;6.50;99.90;;;;;;4778410;30;20078;-84
2023/04/13 01:34:26;;;;;;;7.07;1.50;;;6.50;99.90;;;;;;4793817;29;20059;-83
2023/04/13 01:36:53;;;;;;;4.85;1.38;;;6.50;99.90;;;;;;4793770;30;20051;-83
2023/04/13 01:39:24;;;;;;;5.03;1.42;;;6.50;99.90;;;;;;4793783;30;20138;-84
2023/04/13 01:41:50;;;;;;;4.40;1.85;;;6.40;99.90;;;;;;4793625;30;20081;-84
2023/04/13 01:44:16;;;;;;;6.05;1.50;;;6.50;99.90;;;;;;4790714;29;20051;-83
2023/04/13 01:46:46;;;;;;;7.03;1.88;;;6.50;99.90;;;;;;4774801;30;20059;-84
2023/04/13 01:49:17;;;;;;;4.55;1.50;;;6.50;99.90;;;;;;4775031;30;20062;-83
2023/04/13 01:51:44;;;;;;;3.95;1.50;;;6.50;99.90;;;;;;4745633;30;20047;-83
2023/04/13 01:54:16;;;;;;;3.13;1.40;;;6.50;99.90;;;;;;4790619;30;20132;-83
2023/04/13 01:56:43;;;;;;;4.05;1.52;;;6.50;99.90;;;;;;4791034;30;20094;-83
2023/04/13 01:59:09;;;;;;;6.68;2.30;;;6.50;99.90;;;;;;4791210;30;20047;-84
2023/04/13 02:01:37;;;;;;;5.78;1.40;;;6.50;99.90;;;;;;4790710;30;20058;-83
2023/04/13 02:04:03;;;;;;;5.43;1.60;;;6.50;99.90;;;;;;4790880;30;20430;-83
2023/04/13 02:06:29;;;;;;;4.97;1.67;;;6.50;99.90;;;;;;4790596;30;20055;-83
2023/04/13 02:08:55;;;;;;;3.43;1.40;;;6.50;99.90;;;;;;4774541;30;20047;-83
2023/04/13 02:11:21;;;;;;;2.93;1.33;;;6.60;99.90;;;;;;4774401;30;20047;-83
2023/04/13 02:13:46;;;;;;;7.17;2.40;;;6.50;99.90;;;;;;4791182;29;20105;-84
2023/04/13 02:16:12;;;;;;;4.30;1.40;;;6.50;99.90;;;;;;4790395;30;20077;-83
2023/04/13 02:18:39;;;;;;;4.37;1.87;;;6.50;99.90;;;;;;4790788;30;20133;-83
2023/04/13 02:21:10;;;;;;;4.13;1.67;;;6.50;99.90;;;;;;4790296;29;20055;-82
2023/04/13 02:23:40;;;;;;;2.95;1.50;;;6.60;99.90;;;;;;4790265;30;20059;-83
2023/04/13 02:26:13;;;;;;;4.75;1.70;;;6.60;99.90;;;;;;4790695;30;20050;-82
2023/04/13 02:28:39;;;;;;;5.97;1.63;;;6.60;99.90;;;;;;4774106;30;20066;-83
2023/04/13 02:31:05;;;;;;;3.92;1.60;;;6.60;99.90;;;;;;4790057;30;20080;-82
2023/04/13 02:33:32;;;;;;;5.18;1.70;;;6.60;99.90;;;;;;4790242;30;20370;-82
2023/04/13 02:36:00;;;;;;;3.88;1.40;;;6.60;99.90;;;;;;4790693;30;20126;-82
2023/04/13 02:38:29;;;;;;;5.13;1.92;;;6.60;99.90;;;;;;4774770;30;20059;-82
2023/04/13 02:40:57;;;;;;;4.68;1.70;;;6.60;99.90;;;;;;4789905;30;20089;-82
2023/04/13 02:43:25;;;;;;;6.18;1.80;;;6.60;99.90;;;;;;4790601;29;20370;-81
2023/04/13 02:45:51;;;;;;;5.65;1.58;;;6.60;99.90;;;;;;4773830;30;20056;-83
2023/04/13 02:48:18;;;;;;;4.43;2.00;;;6.60;99.90;;;;;;4790277;29;20409;-82
2023/04/13 02:50:45;;;;;;;3.90;1.48;;;6.60;99.90;;;;;;4773817;30;20489;-83
2023/04/13 02:53:11;;;;;;;2.88;1.38;;;6.60;99.90;;;;;;4774163;30;20066;-83
2023/04/13 02:55:37;;;;;;;3.65;1.50;;;6.60;99.90;;;;;;4789702;29;20087;-83
2023/04/13 02:58:05;;;;;;;4.72;1.77;;;6.70;99.90;;;;;;4789703;30;20059;-83
2023/04/13 03:00:34;;;;;;;5.30;1.85;;;6.60;99.90;;;;;;4774045;30;20089;-83
2023/04/13 03:03:03;;;;;;;3.97;1.70;;;6.70;99.90;;;;;;4774016;30;20047;-84
2023/04/13 03:05:32;;;;;;;3.33;1.25;;;6.70;99.90;;;;;;4758086;30;20076;-83
2023/04/13 03:07:58;;;;;;;3.80;1.40;;;6.70;99.90;;;;;;4789451;30;20501;-83
2023/04/13 03:10:24;;;;;;;3.67;1.43;;;6.70;99.90;;;;;;4789495;30;20054;-82
2023/04/13 03:12:50;;;;;;;4.32;1.30;;;6.70;99.90;;;;;;4773538;30;20103;-81
2023/04/13 03:15:17;;;;;;;4.30;1.60;;;6.70;99.90;;;;;;4789689;30;20087;-81
2023/04/13 03:17:44;;;;;;;3.10;1.40;;;6.80;99.90;;;;;;4773328;30;20680;-81
2023/04/13 03:20:12;;;;;;;3.20;1.40;;;6.70;99.90;;;;;;4773524;30;20098;-82
2023/04/13 03:22:38;;;;;;;4.47;1.70;;;6.70;99.90;;;;;;4789245;29;20130;-81
2023/04/13 03:25:06;;;;;;;4.15;1.70;;;6.80;99.90;;;;;;4789219;30;20066;-82
2023/04/13 03:27:31;;;;;;;3.50;1.55;;;6.70;99.90;;;;;;4789094;30;20047;-82
2023/04/13 03:29:57;;;;;;;3.70;1.77;;;6.70;99.90;;;;;;4773936;30;20065;-82
2023/04/13 03:32:23;;;;;;;4.93;2.13;;;6.70;99.90;;;;;;4789519;30;20055;-83
2023/04/13 03:34:48;;;;;;;5.37;1.80;;;6.70;99.90;;;;;;4789018;30;20054;-83
2023/04/13 03:37:14;;;;;;;4.67;2.00;;;6.80;99.90;;;;;;4789027;30;20048;-83
2023/04/13 03:39:40;;;;;;;4.17;1.90;;;6.70;99.90;;;;;;4788954;30;20508;-83
2023/04/13 03:42:06;;;;;;;4.93;1.70;;;6.70;99.90;;;;;;4788957;30;20062;-84
2023/04/13 03:50:24;;;;;;;3.20;1.70;;;6.70;99.90;;;;;;4787132;27;20055;-72
2023/04/13 03:52:50;;;;;;;4.30;1.90;;;6.70;99.90;;;;;;4788792;30;20043;-84
2023/04/13 03:55:16;;;;;;;4.17;1.80;;;6.70;99.90;;;;;;4772993;30;20381;-85
2023/04/13 03:57:42;;;;;;;5.85;2.53;;;6.70;99.90;;;;;;4773185;30;20067;-84
2023/04/13 04:00:12;;;;;;;5.50;2.30;;;6.70;99.90;;;;;;4772634;30;20558;-84
2023/04/13 04:02:39;;;;;;;3.83;2.13;;;6.70;99.90;;;;;;4772871;30;20108;-84
2023/04/13 04:05:05;;;;;;;5.57;2.55;;;6.70;99.90;;;;;;4773083;30;20503;-84
2023/04/13 04:07:30;;;;;;;4.40;2.10;;;6.60;99.90;;;;;;4788230;30;20047;-84
2023/04/13 04:09:56;;;;;;;4.57;1.83;;;6.60;99.90;;;;;;4772780;30;20128;-84
2023/04/13 04:12:22;;;;;;;6.07;2.07;;;6.60;99.90;;;;;;4772614;30;20052;-84
2023/04/13 04:14:47;;;;;;;3.67;2.07;;;6.50;99.90;;;;;;4772524;30;20051;-84
2023/04/13 04:17:13;;;;;;;5.07;1.90;;;6.50;99.90;;;;;;4788518;30;20047;-84
2023/04/13 04:19:39;;;;;;;6.17;1.93;;;6.50;99.90;;;;;;4788504;30;20055;-84
2023/04/13 04:22:08;;;;;;;4.87;2.23;;;6.50;99.90;;;;;;4758547;30;20445;-84
2023/04/13 04:24:34;;;;;;;5.60;1.90;;;6.40;99.90;;;;;;4772755;30;20108;-84
2023/04/13 04:27:00;;;;;;;6.13;2.20;;;6.40;99.90;;;;;;4789007;30;20414;-85
2023/04/13 04:29:34;;;;;;;6.10;2.00;;;6.40;99.90;;;;;;4757563;30;20080;-84
2023/04/13 04:32:04;;;;;;;4.28;2.15;;;6.30;99.90;;;;;;4758043;30;20300;-84
2023/04/13 04:34:31;;;;;;;5.72;2.05;;;6.30;99.90;;;;;;4788877;30;20055;-84
2023/04/13 04:36:57;;;;;;;4.05;1.95;;;6.30;99.90;;;;;;4772711;30;20471;-85
2023/04/13 04:39:25;;;;;;;5.43;2.22;;;6.30;99.90;;;;;;4788868;30;20059;-85
2023/04/13 04:42:01;;;;;;;4.25;1.95;;;6.20;99.90;;;;;;4772431;30;20154;-84
2023/04/13 04:44:29;;;;;;;5.55;1.98;;;6.20;99.90;;;;;;4772673;30;20141;-84
2023/04/13 04:46:57;;;;;;;4.45;2.00;;;6.20;99.90;;;;;;4756999;30;20060;-84
2023/04/13 04:49:24;;;;;;;4.80;2.00;;;6.20;99.90;;;;;;4788171;29;20507;-84
2023/04/13 04:51:51;;;;;;;7.07;2.65;;;6.10;99.90;;;;;;4772381;30;20067;-84
2023/04/13 04:54:18;;;;;;;5.28;2.20;;;6.10;99.90;;;;;;4773056;30;20433;-84
2023/04/13 04:56:44;;;;;;;6.65;3.28;;;6.10;99.90;;;;;;4788087;30;20093;-84
2023/04/13 04:59:10;;;;;;;6.13;2.58;;;6.10;99.90;;;;;;4788047;30;20071;-84
2023/04/13 05:01:37;;;;;;;8.50;3.07;;;6.10;99.90;;;;;;4772181;30;20063;-84
2023/04/13 05:04:03;;;;;;;6.80;2.83;;;6.10;99.90;;;;;;4772902;30;20051;-85
2023/04/13 05:06:35;;;;;;;5.03;2.90;;;6.10;99.90;;;;;;4772226;30;20061;-85
2023/04/13 05:09:05;;;;;;;6.45;3.58;;;6.10;99.90;;;;;;4757672;30;20051;-85
2023/04/13 05:11:32;;;;;;;5.75;3.05;;;6.10;99.90;;;;;;4756840;30;20063;-84
2023/04/13 05:13:58;;;;;;;9.50;3.70;;;6.10;99.90;;;;;;4757200;30;20043;-85
2023/04/13 05:16:24;;;;;;;8.35;3.50;;;6.10;99.90;;;;;;4772217;30;20059;-85
2023/04/13 05:18:50;;;;;;;7.87;3.43;;;6.10;99.90;;;;;;4773821;30;20138;-85
2023/04/13 05:21:17;;;;;;;6.45;4.03;;;6.10;99.90;;;;;;4775527;30;20297;-84
2023/04/13 05:23:43;;;;;;;8.35;3.80;;;6.20;99.90;;;;;;4775445;30;20091;-85
2023/04/13 05:26:11;;;;;;;5.50;3.40;;;6.20;99.90;;;;;;4791277;30;20138;-85
2023/04/13 05:28:40;;;;;;;7.70;4.53;;;6.20;99.90;;;;;;4775413;30;20557;-85
2023/04/13 05:31:07;;;;;;;9.05;4.43;;;6.20;99.90;;;;;;4775618;30;20142;-86
2023/04/13 05:33:33;;;;;;;8.35;4.63;;;6.40;99.90;;;;;;4775273;30;20115;-85
2023/04/13 05:36:00;;;;;;;7.53;4.40;;;6.50;99.90;;;;;;4775893;30;20051;-85
2023/04/13 05:38:26;;;;;;;9.48;4.10;;;6.50;99.90;;;;;;4790999;30;20051;-85
2023/04/13 05:40:52;;;;;;;10.97;4.03;;;6.60;99.90;;;;;;4775331;30;20052;-86
2023/04/13 05:43:21;;;;;;;6.30;3.45;;;6.60;99.90;;;;;;4775116;30;20058;-85
2023/04/13 05:45:47;;;;;;;8.45;3.95;;;6.60;99.90;;;;;;4760224;30;20055;-85
2023/04/13 05:48:13;;;;;;;7.23;3.40;;;6.70;99.90;;;;;;4790713;30;20100;-84
2023/04/13 05:50:39;;;;;;;11.00;3.47;;;6.70;99.90;;;;;;4760435;30;20059;-85
2023/04/13 05:53:04;;;;;;;8.43;3.10;;;6.70;99.90;;;;;;4791499;30;20380;-85
2023/04/13 05:55:32;;;;;;;10.03;3.20;;;6.70;99.90;;;;;;4760268;30;20091;-84
2023/04/13 05:57:59;;;;;;;7.13;2.40;;;6.70;99.90;;;;;;4760392;30;20091;-84
2023/04/13 06:00:25;;;;;;;11.48;3.78;;;6.70;99.90;;;;;;4790697;30;20055;-84
2023/04/13 06:02:52;;;;;;;8.77;2.58;;;6.70;99.90;;;;;;4790679;30;20135;-84
2023/04/13 06:05:18;;;;;;;11.38;2.75;;;6.70;99.90;;;;;;4760676;30;20142;-84
2023/04/13 06:07:45;;;;;;;9.90;2.30;;;6.80;99.90;;;;;;4790639;30;20399;-84
2023/04/13 06:10:15;;;;;;;5.75;2.22;;;6.90;99.90;;;;;;4774469;30;20090;-84
2023/04/13 06:12:41;;;;;;;8.80;2.40;;;6.90;99.90;;;;;;4774440;30;20112;-83
2023/04/13 06:15:08;;;;;;;8.98;3.33;;;7.00;99.90;;;;;;4774646;30;20051;-84
2023/04/13 06:17:34;;;;;;;8.07;2.50;;;7.10;99.90;;;;;;4775319;30;20055;-83
2023/04/13 06:20:00;;;;;;;8.65;2.50;;;7.10;99.90;;;;;;4790455;30;20058;-83
2023/04/13 06:22:26;;;;;;;5.60;2.40;;;7.20;99.90;;;;;;4774397;30;20051;-83
2023/04/13 06:24:52;;;;;;;7.43;2.40;;;7.30;99.90;;;;;;4775221;30;20112;-83
2023/04/13 06:27:18;;;;;;;6.90;2.33;;;7.30;99.90;;;;;;4774057;30;20488;-84
2023/04/13 06:29:44;;;;;;;9.00;3.23;;;7.30;99.90;;;;;;4758978;30;20134;-83
2023/04/13 06:32:10;;;;;;;9.63;2.83;;;7.40;99.90;;;;;;4790738;30;20055;-83
2023/04/13 06:34:37;;;;;;;6.60;2.80;;;7.60;99.90;;;;;;4759479;30;20416;-83
2023/04/13 06:37:03;;;;;;;7.07;2.70;;;7.60;99.90;;;;;;4774265;30;20336;-83
2023/04/13 06:39:30;;;;;;;11.80;3.23;;;8.10;99.90;;;;;;4759586;30;20066;-83
2023/04/13 06:41:56;;;;;;;10.80;3.43;;;8.40;99.90;;;;;;4790064;30;20289;-83
2023/04/13 06:44:23;;;;;;;8.97;2.97;;;8.80;99.90;;;;;;4759306;30;20722;-84
2023/04/13 06:46:49;;;;;;;10.73;3.20;;;9.60;99.90;;;;;;4773887;30;20338;-84
2023/04/13 06:49:15;;;;;;;6.60;2.20;;;10.30;99.90;;;;;;4758963;30;20301;-84
2023/04/13 06:51:41;;;;;;;9.37;2.50;;;10.30;99.90;;;;;;4789816;30;20308;-85
2023/04/13 06:54:07;;;;;;;8.63;2.33;;;10.10;99.90;;;;;;4759159;30;20055;-84
2023/04/13 06:56:33;;;;;;;7.93;2.10;;;9.90;99.90;;;;;;4744384;30;20312;-85
2023/04/13 06:59:00;;;;;;;10.37;2.60;;;9.60;99.90;;;;;;4744121;30;20297;-83
2023/04/13 07:01:29;;;;;;;8.60;2.27;;;9.40;99.90;;;;;;4759719;30;20519;-83
2023/04/13 07:03:55;;;;;;;11.03;2.50;;;9.20;99.90;;;;;;4759064;30;20300;-83
2023/04/13 07:06:22;;;;;;;6.97;1.90;;;9.30;99.90;;;;;;4789421;30;20354;-84
2023/04/13 07:08:48;;;;;;;5.83;1.70;;;9.80;99.90;;;;;;4789497;30;20305;-83
2023/04/13 07:11:13;;;;;;;7.07;2.00;;;10.60;99.90;;;;;;4773646;30;20782;-84
2023/04/13 07:13:40;;;;;;;12.43;2.43;;;11.30;99.90;;;;;;4758798;30;20292;-84
2023/04/13 07:16:11;;;;;;;5.50;1.70;;;12.50;99.90;;;;;;4773547;30;20494;-84
2023/04/13 07:18:37;;;;;;;6.90;2.00;;;13.90;99.90;;;;;;4773795;30;20297;-84
2023/04/13 07:21:03;;;;;;;6.63;1.73;;;14.80;99.90;;;;;;4759541;30;20304;-84
2023/04/13 07:23:32;;;;;;;8.73;1.87;;;14.30;99.90;;;;;;4744386;30;20296;-84
2023/04/13 07:25:58;;;;;;;8.03;1.90;;;13.70;99.90;;;;;;4744527;30;20323;-85
2023/04/13 07:28:24;;;;;;;6.67;1.57;;;13.20;99.90;;;;;;4758441;30;20292;-85
2023/04/13 07:30:51;;;;;;;5.03;1.43;;;12.70;99.90;;;;;;4773532;30;20446;-85
2023/04/13 07:33:17;;;;;;;8.33;1.50;;;12.30;99.90;;;;;;4789126;30;20392;-85
2023/04/13 07:35:43;;;;;;;6.77;1.40;;;11.80;99.90;;;;;;4773239;30;20383;-85
2023/04/13 07:38:09;;;;;;;6.07;1.23;;;11.50;99.90;;;;;;4789076;30;20059;-85
2023/04/13 07:40:35;;;;;;;6.83;1.70;;;11.10;99.90;;;;;;4759234;30;20047;-86
2023/04/13 07:43:01;;;;;;;6.17;1.50;;;10.90;99.90;;;;;;4757721;30;20289;-87
2023/04/13 07:45:30;;;;;;;6.57;2.00;;;10.60;99.90;;;;;;4758353;30;20361;-87
2023/04/13 07:47:56;;;;;;;8.47;1.40;;;10.40;99.90;;;;;;4758521;30;20171;-87
2023/04/13 07:50:22;;;;;;;5.57;1.47;;;10.20;99.90;;;;;;4789707;30;20296;-87
2023/04/13 07:52:48;;;;;;;5.50;1.60;;;10.30;99.90;;;;;;4789562;30;20756;-87
2023/04/13 07:55:13;;;;;;;7.33;1.60;;;10.40;99.90;;;;;;4758442;30;20543;-87
2023/04/13 07:57:39;;;;;;;8.20;1.50;;;10.70;99.90;;;;;;4759044;30;20379;-86
2023/04/13 08:00:07;;;;;;;4.37;1.17;;;10.90;99.90;;;;;;4789157;30;20353;-86
2023/04/13 08:02:32;;;;;;;4.07;1.10;;;10.80;99.90;;;;;;4774490;30;20055;-89
2023/04/13 08:04:58;;;;;;;6.10;1.53;;;10.80;99.90;;;;;;4759251;30;20308;-87
2023/04/13 08:07:25;;;;;;;4.67;1.30;;;10.80;99.90;;;;;;4789062;30;20047;-86
2023/04/13 08:09:51;;;;;;;8.13;1.80;;;10.80;99.90;;;;;;4788480;30;20504;-86
2023/04/13 08:12:17;;;;;;;7.53;1.87;;;10.80;99.90;;;;;;4743418;30;20341;-86
2023/04/13 08:14:43;;;;;;;4.43;1.13;;;10.70;99.90;;;;;;4788797;30;20285;-86
2023/04/13 08:17:10;;;;;;;6.97;1.67;;;10.60;99.90;;;;;;4772768;30;20876;-86
2023/04/13 08:19:35;;;;;;;7.23;1.53;;;10.50;99.90;;;;;;4772642;30;20066;-86
2023/04/13 08:22:01;;;;;;;6.07;1.30;;;10.30;99.90;;;;;;4772650;30;20289;-84
2023/04/13 08:24:28;;;;;;;5.77;1.60;;;10.00;99.90;;;;;;4772458;30;20058;-87
2023/04/13 08:26:56;;;;;;;4.47;1.30;;;9.80;99.90;;;;;;4788364;29;20352;-84
2023/04/13 08:29:23;;;;;;;3.80;1.40;;;9.60;99.90;;;;;;4788393;30;20289;-82
2023/04/13 08:31:48;;;;;;;4.77;1.30;;;9.50;99.90;;;;;;4788376;30;20365;-83
2023/04/13 08:34:15;;;;;;;5.80;1.70;;;9.60;99.90;;;;;;4757913;30;20777;-84
2023/04/13 08:36:41;;;;;;;4.97;1.30;;;9.80;99.90;;;;;;4788291;30;20082;-83
2023/04/13 08:39:09;;;;;;;3.87;1.13;;;10.00;99.90;;;;;;4772474;30;20344;-82
2023/04/13 08:41:39;;;;;;;5.43;1.33;;;10.00;99.90;;;;;;4772320;30;20113;-83
2023/04/13 08:44:05;;;;;;;4.00;1.00;;;10.10;99.90;;;;;;4789049;30;20293;-82
2023/04/13 08:46:33;;;;;;;3.73;1.17;;;10.10;99.90;;;;;;4771907;30;20317;-82
2023/04/13 08:49:00;;;;;;;5.53;1.40;;;10.10;99.90;;;;;;4772090;30;20337;-84
2023/04/13 08:51:28;;;;;;;4.07;1.10;;;10.10;99.90;;;;;;4772600;30;20301;-83
2023/04/13 08:53:57;;;;;;;4.50;1.17;;;10.00;99.90;;;;;;4774659;30;20308;-84
2023/04/13 08:56:23;;;;;;;6.33;1.20;;;9.80;99.90;;;;;;4761457;30;20781;-84
2023/04/13 08:58:53;;;;;;;4.70;1.00;;;9.70;99.90;;;;;;4775867;30;20698;-85
2023/04/13 09:01:20;;;;;;;4.73;1.00;;;9.70;99.90;;;;;;4775840;30;20376;-86
2023/04/13 09:04:06;;;;;;;5.03;1.93;;;9.60;99.90;;;;;;4791587;30;20289;-82
2023/04/13 09:06:36;;;;;;;7.47;1.50;;;9.50;99.90;;;;;;4791577;30;20304;-82
2023/04/13 09:09:08;;;;;;;6.30;1.40;;;9.40;99.90;;;;;;4791723;29;20293;-83
2023/04/13 09:11:34;;;;;;;4.23;0.70;;;9.30;99.90;;;;;;4775643;30;20293;-84
2023/04/13 09:14:00;;;;;;;3.53;1.00;;;9.20;99.90;;;;;;4791613;29;20380;-84
2023/04/13 09:16:26;;;;;;;4.00;0.87;;;9.20;99.90;;;;;;4760555;30;20062;-85
2023/04/13 09:18:55;;;;;;;2.63;0.80;;;9.20;99.90;;;;;;4776376;30;20680;-85
2023/04/13 09:21:22;;;;;;;2.83;0.70;;;9.20;99.90;;;;;;4775550;30;20380;-86
2023/04/13 09:23:58;;;;;;;1.50;0.47;;;9.20;99.90;;;;;;4760635;30;20371;-86
2023/04/13 09:26:25;;;;;;;3.07;0.60;;;9.20;99.90;;;;;;4776056;30;20684;-86
2023/04/13 09:28:56;;;;;;;1.87;0.40;;;9.00;99.90;;;;;;4760876;30;20296;-86
2023/04/13 09:31:23;;;;;;;2.27;0.60;;;8.90;99.90;;;;;;4775202;30;20289;-87
2023/04/13 09:33:51;;;;;;;1.23;0.50;;;8.90;99.90;;;;;;4791201;29;20381;-86
2023/04/13 09:36:19;;;;;;;2.77;0.63;;;8.90;99.90;;;;;;4775105;30;20603;-86
2023/04/13 09:38:54;;;;;;;2.10;0.60;;;8.80;99.90;;;;;;4745765;30;20297;-86
2023/04/13 09:41:33;;;;;;;1.13;0.50;;;8.80;99.90;;;;;;4791109;29;20376;-87
2023/04/13 09:44:00;;;;;;;1.90;0.80;;;8.80;99.90;;;;;;4775909;30;20051;-86
2023/04/13 09:46:25;;;;;;;1.77;0.60;;;8.80;99.90;;;;;;4775757;30;20324;-86
2023/04/13 09:49:18;;;;;;;2.07;0.70;;;8.80;99.90;;;;;;4774977;30;20856;-87
2023/04/13 09:51:43;;;;;;;1.77;0.60;;;8.90;99.90;;;;;;4771750;30;20476;-86
2023/04/13 09:54:10;;;;;;;2.07;0.80;;;9.00;99.90;;;;;;4790942;30;20299;-87
2023/04/13 09:56:47;;;;;;;2.73;0.80;;;9.30;99.90;;;;;;4774954;30;20057;-86
2023/04/13 09:59:13;;;;;;;3.80;0.63;;;9.60;99.90;;;;;;4760965;30;20296;-87
2023/04/13 10:01:42;;;;;;;1.37;0.57;;;9.80;99.90;;;;;;4760013;30;20301;-87
2023/04/13 10:04:08;;;;;;;3.03;0.70;;;9.80;99.90;;;;;;4773989;30;20797;-87
2023/04/13 10:06:42;;;;;;;3.07;0.80;;;9.80;99.90;;;;;;4759461;30;20321;-88
2023/04/13 10:09:09;;;;;;;4.03;0.90;;;9.80;99.90;;;;;;4775268;30;20338;-87
2023/04/13 10:11:45;;;;;;;8.00;1.63;;;9.90;99.90;;;;;;4774150;30;20794;-87
2023/04/13 10:14:16;;;;;;;6.87;1.37;;;9.90;99.90;;;;;;4774750;30;20355;-88
2023/04/13 10:16:52;;;;;;;5.87;1.20;;;10.00;99.90;;;;;;4775359;30;20292;-87
2023/04/13 10:19:26;;;;;;;5.43;0.97;;;10.10;99.90;;;;;;4759999;30;20328;-87
2023/04/13 10:21:53;;;;;;;4.10;1.20;;;10.30;99.90;;;;;;4774617;30;20800;-87
2023/04/13 10:24:20;;;;;;;4.20;1.00;;;10.40;99.90;;;;;;4774585;30;20341;-88
2023/04/13 10:26:45;;;;;;;7.17;1.30;;;10.50;99.90;;;;;;4774334;30;20308;-88
2023/04/13 10:29:13;;;;;;;5.53;1.57;;;10.60;99.90;;;;;;4774540;30;20384;-88
2023/04/13 10:31:50;;;;;;;8.40;2.40;;;10.70;99.90;;;;;;4774505;30;20062;-87
2023/04/13 10:34:38;;;;;;;6.70;1.67;;;10.60;99.90;;;;;;4759906;30;20781;-88
2023/04/13 10:37:14;;;;;;;6.67;1.97;;;10.40;99.90;;;;;;4774110;30;20288;-86
2023/04/13 10:39:40;;;;;;;6.20;1.50;;;10.30;99.90;;;;;;4760985;30;20301;-88
2023/04/13 10:42:11;;;;;;;3.27;0.80;;;10.20;99.90;;;;;;4744397;30;20798;-87
2023/04/13 10:44:44;;;;;;;4.77;1.30;;;10.00;99.90;;;;;;4789995;30;20094;-86
2023/04/13 10:47:11;;;;;;;4.87;1.53;;;9.80;99.90;;;;;;4774093;30;20378;-85
2023/04/13 10:49:36;;;;;;;5.97;1.93;;;9.60;99.90;;;;;;4773539;30;20297;-85
2023/04/13 10:52:02;;;;;;;6.00;1.20;;;9.40;99.90;;;;;;4759001;30;20653;-86
2023/04/13 10:54:29;;;;;;;9.10;1.33;;;9.30;99.90;;;;;;4759904;30;20062;-86
2023/04/13 10:57:01;;;;;;;9.17;1.90;;;9.30;99.90;;;;;;4774018;30;20095;-87
2023/04/13 10:59:41;;;;;;;8.37;1.70;;;9.40;99.90;;;;;;4774467;30;20300;-87
2023/04/13 11:02:13;;;;;;;10.77;2.43;;;9.50;99.90;;;;;;4789432;30;20802;-88
2023/04/13 11:04:47;;;;;;;7.70;1.87;;;9.60;99.90;;;;;;4773654;30;20857;-86
2023/04/13 11:07:24;;;;;;;11.57;3.15;;;9.80;99.90;;;;;;4790447;30;20317;-86
2023/04/13 11:09:54;;;;;;;15.63;3.50;;;9.90;99.90;;;;;;4774094;30;20447;-87
2023/04/13 11:12:19;;;;;;;10.60;2.13;;;10.10;99.90;;;;;;4789196;30;20723;-86
2023/04/13 11:14:46;;;;;;;12.80;2.70;;;10.20;99.90;;;;;;4758857;30;20340;-86
2023/04/13 11:17:17;;;;;;;15.80;3.27;;;10.30;99.90;;;;;;4773949;30;20507;-88
2023/04/13 11:19:53;;;;;;;11.43;2.43;;;10.40;99.90;;;;;;4790216;30;20293;-86
2023/04/13 11:22:22;;;;;;;13.77;2.60;;;10.50;99.90;;;;;;4758498;30;20362;-86
2023/04/13 11:24:49;;;;;;;8.63;2.20;;;10.70;99.90;;;;;;4789329;30;20304;-88
2023/04/13 11:27:23;;;;;;;11.10;2.90;;;10.70;99.90;;;;;;4773356;30;20655;-87
2023/04/13 11:30:05;;;;;;;15.63;2.90;;;10.80;99.90;;;;;;4773714;30;20300;-87
2023/04/13 11:32:38;;;;;;;15.40;2.93;;;10.80;99.90;;;;;;4773769;30;20297;-88
2023/04/13 11:35:13;;;;;;;13.63;3.00;;;10.80;99.90;;;;;;4773461;30;20799;-89
2023/04/13 11:37:48;;;;;;;16.45;3.22;;;10.80;99.90;;;;;;4773675;30;20297;-88
2023/04/13 11:40:20;;;;;;;13.10;2.65;;;10.90;99.90;;;;;;4758818;30;20073;-88
2023/04/13 11:42:49;;;;;;;11.67;2.63;;;10.90;99.90;;;;;;4773992;30;20138;-90
2023/04/13 11:45:15;;;;;;;14.83;3.30;;;11.00;99.90;;;;;;4773201;30;20300;-89
2023/04/13 11:47:44;;;;;;;13.47;3.07;;;11.00;99.90;;;;;;4758199;30;20313;-87
2023/04/13 11:50:12;;;;;;;11.13;2.67;;;11.00;99.90;;;;;;4772575;30;20301;-88
2023/04/13 11:52:39;;;;;;;15.30;3.20;;;11.00;99.90;;;;;;4772834;30;20654;-88
2023/04/13 11:55:06;;;;;;;13.00;3.13;;;11.00;99.90;;;;;;4772708;30;20300;-88
2023/04/13 11:57:32;;;;;;;11.97;2.33;;;10.90;99.90;;;;;;4773008;30;20299;-88
2023/04/13 11:59:58;;;;;;;12.80;2.80;;;10.90;99.90;;;;;;4773348;30;20375;-88
2023/04/13 12:02:29;;;;;;;15.67;2.50;;;10.80;99.90;;;;;;4788804;30;20547;-86
2023/04/13 12:04:55;;;;;;;10.73;2.77;;;10.80;99.90;;;;;;4773706;30;20333;-88
2023/04/13 12:07:21;;;;;;;13.23;2.60;;;10.90;99.90;;;;;;4772688;30;20320;-87
2023/04/13 12:09:50;;;;;;;9.87;2.93;;;11.00;99.90;;;;;;4757647;30;20653;-86
2023/04/13 12:12:21;;;;;;;12.03;2.47;;;11.00;99.90;;;;;;4772832;30;20305;-87
2023/04/13 12:14:57;;;;;;;10.37;2.23;;;11.00;99.90;;;;;;4773582;30;20631;-87
2023/04/13 12:17:30;;;;;;;7.87;2.40;;;11.00;99.90;;;;;;4772789;30;20885;-89
2023/04/13 12:19:57;;;;;;;12.77;2.70;;;10.90;99.90;;;;;;4772704;30;20767;-89
2023/04/13 12:22:34;;;;;;;10.37;2.70;;;10.70;99.90;;;;;;4788625;30;20311;-89
2023/04/13 12:25:00;;;;;;;11.03;2.60;;;10.60;99.90;;;;;;4773309;30;20293;-88
2023/04/13 12:27:25;;;;;;;15.93;3.07;;;10.50;99.90;;;;;;4757525;30;20411;-88
2023/04/13 12:29:51;;;;;;;13.57;2.60;;;10.50;99.90;;;;;;4758556;30;20051;-90
2023/04/13 12:32:17;;;;;;;15.73;2.40;;;10.40;99.90;;;;;;4757799;30;20109;-89
2023/04/13 12:34:43;;;;;;;14.07;2.50;;;10.40;99.90;;;;;;4773343;30;20546;-89
2023/04/13 12:37:10;;;;;;;10.57;2.90;;;10.40;99.90;;;;;;4773247;30;20090;-88
2023/04/13 12:39:36;;;;;;;13.60;2.90;;;10.40;99.90;;;;;;4757799;30;20300;-89
2023/04/13 12:42:02;;;;;;;15.47;2.60;;;10.40;99.90;;;;;;4757837;30;20297;-88
2023/04/13 12:44:28;;;;;;;9.17;2.33;;;10.50;99.90;;;;;;4742868;30;20111;-89
2023/04/13 12:46:53;;;;;;;12.83;2.90;;;10.50;99.90;;;;;;4772567;30;20051;-88
2023/04/13 12:49:19;;;;;;;11.23;2.60;;;10.60;99.90;;;;;;4757436;30;20063;-87
2023/04/13 12:51:45;;;;;;;11.83;2.73;;;10.70;99.90;;;;;;4757419;30;20116;-87
2023/04/13 12:54:12;;;;;;;10.50;2.00;;;10.80;99.90;;;;;;4772316;30;20059;-89
2023/04/13 12:56:41;;;;;;;13.97;3.30;;;10.80;99.90;;;;;;4757584;30;20077;-88
2023/04/13 12:59:07;;;;;;;9.97;2.50;;;10.80;99.90;;;;;;4772435;30;20717;-89
2023/04/13 13:01:36;;;;;;;10.77;2.50;;;10.70;99.90;;;;;;4757808;30;20301;-89
2023/04/13 13:04:03;;;;;;;14.20;3.17;;;10.80;99.90;;;;;;4772310;30;20805;-89